Cedar City, UT

4:39 AM MDT on May 24, 2015 (GMT -0600)
Cedar City Regional | | Change Station
CLOSE
Current Station
Airport
Location: Cedar City,
Elevation: 5620 ft
Nearby Weather Stations

Elev 5620 ft 37.70 °N, 113.10 °W | Updated 39 minutes ago

Overcast
Overcast
46 °F
Feels Like 44 °F
N
5
Wind Variable Wind from ESE

Today
High -- | Low -- °F
--% Chance of Precip.
Yesterday
High -- | Low -- °F
Precip. -- in
6:16 AM 8:42 PM
Waxing Crescent, 38% visible
Pressure 29.97 in
Visibility 10.0 miles
Clouds Few 2000 ft
Scattered Clouds 2600 ft
Overcast 7000 ft
Windchill 44 °F
Dew Point 42 °F
Humidity 86%
Rainfall 0.07 in
Snow Depth Not available.
UV 0 out of 12
Pollen 2.00 out of 12
Air Quality Not available.
Flu Activity Sporadic
SPECI KCDC 241000Z AUTO 12004KT 10SM FEW020 SCT026 OVC070 08/06 A2997 RMK AO2 T00780056

More Conditions Fewer Conditions

Pressure 29.97 in
Visibility 10.0 miles
Clouds Few 2000 ft
Scattered Clouds 2600 ft
Overcast 7000 ft
Windchill 44 °F
Dew Point 42 °F
Humidity 86%
Rainfall 0.07 in
Snow Depth Not available.
UV 0 out of 12
Pollen 2.00 out of 12
Air Quality Not available.
Flu Activity Sporadic
SPECI KCDC 241000Z AUTO 12004KT 10SM FEW020 SCT026 OVC070 08/06 A2997 RMK AO2 T00780056

More Conditions Fewer Conditions

10-Day Weather Forecast

Almanac

Astronomy

May. 24, 2015 Rise Set
Actual Time
Civil Twilight
Nautical Twilight
Astronomical Twilight
Moon
Length of Visible Light
Length of Day
Tomorrow will be .
, % of the Moon is Illuminated

Today's Extremes

State Highs State Lows

Community

WunderPhotos

Upload Photos

1,823,710 photos uploaded!

WunderBlogs® & News

Nearby

Air Quality

  Air Quality AQ Index Pollutant
Not available.

Snow Depth

Station Depth Elevation

Earthquake Activity

City Distance Mag. Time & Date
Minimum magnitude displayed is 2.5.

Coastal Water Temperatures

Place Temperature

Stations

Nearby Weather Stations

Station Location Temp. Windchill Dew Point Humidity Wind Precip. Elev Updated Type